Limeport, Pennsylvania
Current Conditions -  °F | °C
As of 7:15 AM on Sunday 25 Jan 2015 (Local Time) from KXLL Reporting Station
Overcast Overcast  
Wind Chill: 27°   Ceiling: 2900
Heat Index: 36°   Visibility: 10mi
Dew Point: 30°   Wind: 13mph
Humidity: 81%   Direction: 230°SW
Pressure: 29.71"   Gusts: NA
Location:  40.51°N, 75.45°W
Report Text: KXLL 251215Z AUTO 23011KT 10SM OVC029 02/M01 A2971 RMK AO2
Loading
Personal Weather Stations






























Interactive Weather Map New forecast layout! Learn more

10-Day Weather Forecast

Advertisements
Track Severe Weather on mobile